CheckWX is a tool to help pilots better visualize weather data.  It is not intended as a substitute for an official pre-flight weather briefing.

21:08:58 UTC

KLVJ METAR
Pearland Regional Airport
Houston, Texas, USA
Current

16 mins ago

KLVJ 232053Z AUTO 14012KT 8SM SCT020 BKN029 OVC036 29/24 A3002 RMK AO2 SLP163 T02940239 58012
Observed
May-23 @ 20:53 UTC
Wind
  • 140° at 12 KTS
Visibility
8 SM
Flight Rules
MVFR
Cloud Levels
  • Scattered at 2,000' AGL
  • Broken at 2,900' AGL
  • Overcast at 3,600' AGL
Temperature
29°C / 84°F
Dewpoint
24°C / 75°F
Heat Index
33°C / 92°F
Humidity
74%
Altimeter
30.02" Hg
Pressure
1016.62 hPa
Previous

30 mins ago

KLVJ 232039Z AUTO 14015KT 9SM FEW021 BKN033 OVC040 29/23 A3002 RMK AO2 T02940233
Observed
May-23 @ 20:39 UTC
Wind
  • 140° at 15 KTS
Visibility
9 SM
Flight Rules
VFR
Cloud Levels
  • Few at 2,100' AGL
  • Broken at 3,300' AGL
  • Overcast at 4,000' AGL
Temperature
29°C / 84°F
Dewpoint
23°C / 73°F
Heat Index
32°C / 90°F
Humidity
70%
Altimeter
30.02" Hg
Pressure
1016.62 hPa
Previous

2 hours ago

KLVJ 231853Z AUTO 14014G19KT 8SM FEW022 OVC033 29/24 A3004 RMK AO2 SLP170 T02940239
Observed
May-23 @ 18:53 UTC
Wind
  • 140° at 14 KTS
  • Gusting to 19 KTS
Visibility
8 SM
Flight Rules
VFR
Cloud Levels
  • Few at 2,200' AGL
  • Overcast at 3,300' AGL
Temperature
29°C / 84°F
Dewpoint
24°C / 75°F
Heat Index
33°C / 92°F
Humidity
74%
Altimeter
30.04" Hg
Pressure
1017.32 hPa